Supply — NACO — position and weather

sailwx.info

Track history (hours):
 
Tides and Currents Weather Stations Pressure Air Temp Water Temp Dewpoint Dewpoint Depression Visibility Wind Speed Wind Dir Waves Ship Positions

Supply

Last reported at 2017-Oct-16 03:32 UTC. Time now 2017-Oct-22 19:18 UTC.
Position N 35°32' W 075°10'.

Length 230 m; draft 11 m.

Type: Military. MMSI: 338947000.

Date/timePositionNaut miles runAvg speedWind from/ knotsBaromVisibWave heightAir tempDewpointWater temp
2017-Oct-16 03:32N 35°32' W 075°10'011.8
2017-Oct-16 03:31N 35°32' W 075°10'1611.4
2017-Oct-16 02:05N 35°49' W 075°10'111.5
2017-Oct-16 02:00N 35°50' W 075°10'1911.3
2017-Oct-16 00:21N 36°08' W 075°10'50 6.8
2017-Oct-15 17:00N 36°49' W 075°46'5 9.8
2017-Oct-15 16:30N 36°51' W 075°51'510.1
2017-Oct-15 16:00N 36°55' W 075°56'713.3
2017-Oct-15 15:30N 36°58' W 076°03'713.8
2017-Oct-15 14:59N 36°60' W 076°12'7 0.1
2017-Oct-13 14:18N 36°57' W 076°20'0 0.0
2017-Oct-13 13:59N 36°57' W 076°20'0 0.0
2017-Oct-13 13:28N 36°57' W 076°20'0 0.0
2017-Oct-13 12:42N 36°57' W 076°20'0 0.1
2017-Oct-13 12:30N 36°57' W 076°20'3 6.1
2017-Oct-13 12:00N 36°54' W 076°20'0 0.0
2017-Oct-12 14:33N 36°53' W 076°20'0 0.2
2017-Oct-12 14:30N 36°53' W 076°20'0 0.1
2017-Oct-12 14:01N 36°53' W 076°20'1 2.0
2017-Oct-12 13:30N 36°54' W 076°20'10 7.4
2017-Oct-12 12:12N 36°59' W 076°10'315.0
2017-Oct-12 11:59N 36°58' W 076°06'714.9
2017-Oct-12 11:30N 36°56' W 075°58'610.4
2017-Oct-12 10:57N 36°53' W 075°52'1 0.0
2017-Oct-10 23:57N 36°52' W 075°53'815.2
2017-Oct-10 23:26N 36°57' W 076°00'613.0
2017-Oct-10 23:00N 36°59' W 076°07'  
2017-Oct-06 19:49N 36°57' W 076°20'0 0.6
2017-Oct-06 19:30N 36°57' W 076°20'2 0.3
2017-Oct-06 12:25N 36°59' W 076°20'1 2.2
2017-Oct-06 12:01N 36°58' W 076°20'  
Track history (hours):
 
Tides and Currents Weather Stations Pressure Air Temp Water Temp Dewpoint Dewpoint Depression Visibility Wind Speed Wind Dir Waves Ship Positions

Supply

Last reported at 2017-Oct-16 03:32 UTC. Time now 2017-Oct-22 19:18 UTC.
Position N 35°32' W 075°10'.

Length 230 m; draft 11 m.

Type: Military. MMSI: 338947000.

Date/timePositionNaut miles runAvg speedWind from/ knotsBaromVisibWave heightAir tempDewpointWater temp
2017-Oct-16 03:32N 35°32' W 075°10'011.8
2017-Oct-16 03:31N 35°32' W 075°10'1611.4
2017-Oct-16 02:05N 35°49' W 075°10'111.5
2017-Oct-16 02:00N 35°50' W 075°10'1911.3
2017-Oct-16 00:21N 36°08' W 075°10'50 6.8
2017-Oct-15 17:00N 36°49' W 075°46'5 9.8
2017-Oct-15 16:30N 36°51' W 075°51'510.1
2017-Oct-15 16:00N 36°55' W 075°56'713.3
2017-Oct-15 15:30N 36°58' W 076°03'713.8
2017-Oct-15 14:59N 36°60' W 076°12'7 0.1
2017-Oct-13 14:18N 36°57' W 076°20'0 0.0
2017-Oct-13 13:59N 36°57' W 076°20'0 0.0
2017-Oct-13 13:28N 36°57' W 076°20'0 0.0
2017-Oct-13 12:42N 36°57' W 076°20'0 0.1
2017-Oct-13 12:30N 36°57' W 076°20'3 6.1
2017-Oct-13 12:00N 36°54' W 076°20'0 0.0
2017-Oct-12 14:33N 36°53' W 076°20'0 0.2
2017-Oct-12 14:30N 36°53' W 076°20'0 0.1
2017-Oct-12 14:01N 36°53' W 076°20'1 2.0
2017-Oct-12 13:30N 36°54' W 076°20'10 7.4
2017-Oct-12 12:12N 36°59' W 076°10'315.0
2017-Oct-12 11:59N 36°58' W 076°06'714.9
2017-Oct-12 11:30N 36°56' W 075°58'610.4
2017-Oct-12 10:57N 36°53' W 075°52'1 0.0
2017-Oct-10 23:57N 36°52' W 075°53'815.2
2017-Oct-10 23:26N 36°57' W 076°00'613.0
2017-Oct-10 23:00N 36°59' W 076°07'  
2017-Oct-06 19:49N 36°57' W 076°20'0 0.6
2017-Oct-06 19:30N 36°57' W 076°20'2 0.3
2017-Oct-06 12:25N 36°59' W 076°20'1 2.2
2017-Oct-06 12:01N 36°58' W 076°20'  

Dump ship's entire track history